sensor_id;sensor_type;location;lat;lon;timestamp;pressure;altitude;pressure_sealevel;temperature;humidity
75627;BME280;67372;49.404;11.034;2023-02-11T00:00:38;100119.09;;;-2.69;74.39
75627;BME280;67372;49.404;11.034;2023-02-11T00:03:05;100124.25;;;-2.68;74.53
75627;BME280;67372;49.404;11.034;2023-02-11T00:05:31;100116.25;;;-2.65;73.98
75627;BME280;67372;49.404;11.034;2023-02-11T00:07:58;100114.56;;;-2.66;74.18
75627;BME280;67372;49.404;11.034;2023-02-11T00:10:24;100114.56;;;-2.66;74.49
75627;BME280;67372;49.404;11.034;2023-02-11T00:12:50;100119.59;;;-2.63;74.19
75627;BME280;67372;49.404;11.034;2023-02-11T00:15:17;100106.47;;;-2.61;74.22
75627;BME280;67372;49.404;11.034;2023-02-11T00:17:43;100105.78;;;-2.65;74.58
75627;BME280;67372;49.404;11.034;2023-02-11T00:20:09;100099.91;;;-2.68;74.09
75627;BME280;67372;49.404;11.034;2023-02-11T00:22:36;100094.75;;;-2.70;74.10
75627;BME280;67372;49.404;11.034;2023-02-11T00:25:02;100088.53;;;-2.67;74.12
75627;BME280;67372;49.404;11.034;2023-02-11T00:27:29;100091.97;;;-2.67;73.77
75627;BME280;67372;49.404;11.034;2023-02-11T00:29:55;100085.81;;;-2.66;73.50
75627;BME280;67372;49.404;11.034;2023-02-11T00:32:22;100090.22;;;-2.66;73.64
75627;BME280;67372;49.404;11.034;2023-02-11T00:34:51;100086.00;;;-2.69;73.99
75627;BME280;67372;49.404;11.034;2023-02-11T00:37:17;100079.28;;;-2.73;73.85
75627;BME280;67372;49.404;11.034;2023-02-11T00:39:44;100073.13;;;-2.72;73.83
75627;BME280;67372;49.404;11.034;2023-02-11T00:42:13;100073.13;;;-2.72;73.70
75627;BME280;67372;49.404;11.034;2023-02-11T00:44:40;100079.34;;;-2.74;74.94
75627;BME280;67372;49.404;11.034;2023-02-11T00:47:06;100076.84;;;-2.76;74.40
75627;BME280;67372;49.404;11.034;2023-02-11T00:49:32;100077.69;;;-2.75;74.42
75627;BME280;67372;49.404;11.034;2023-02-11T00:51:59;100081.38;;;-2.80;74.57
75627;BME280;67372;49.404;11.034;2023-02-11T00:54:25;100075.06;;;-2.75;74.21
75627;BME280;67372;49.404;11.034;2023-02-11T00:56:55;100073.13;;;-2.72;74.47
75627;BME280;67372;49.404;11.034;2023-02-11T00:59:21;100079.09;;;-2.70;74.34
75627;BME280;67372;49.404;11.034;2023-02-11T01:01:47;100072.94;;;-2.69;73.88
75627;BME280;67372;49.404;11.034;2023-02-11T01:04:14;100078.16;;;-2.69;73.99
75627;BME280;67372;49.404;11.034;2023-02-11T01:06:40;100075.56;;;-2.69;75.00
75627;BME280;67372;49.404;11.034;2023-02-11T01:09:06;100068.56;;;-2.68;73.92
75627;BME280;67372;49.404;11.034;2023-02-11T01:11:33;100068.56;;;-2.68;74.13
75627;BME280;67372;49.404;11.034;2023-02-11T01:14:01;100062.59;;;-2.70;75.07
75627;BME280;67372;49.404;11.034;2023-02-11T01:16:27;100056.59;;;-2.72;76.11
75627;BME280;67372;49.404;11.034;2023-02-11T01:18:54;100056.69;;;-2.74;75.63
75627;BME280;67372;49.404;11.034;2023-02-11T01:21:20;100055.78;;;-2.73;75.27
75627;BME280;67372;49.404;11.034;2023-02-11T01:23:47;100051.31;;;-2.71;74.59
75627;BME280;67372;49.404;11.034;2023-02-11T01:26:13;100051.31;;;-2.71;74.53
75627;BME280;67372;49.404;11.034;2023-02-11T01:28:39;100051.22;;;-2.69;74.42
75627;BME280;67372;49.404;11.034;2023-02-11T01:31:06;100052.72;;;-2.65;74.25
75627;BME280;67372;49.404;11.034;2023-02-11T01:33:32;100045.53;;;-2.62;74.71
75627;BME280;67372;49.404;11.034;2023-02-11T01:36:00;100043.44;;;-2.55;74.47
75627;BME280;67372;49.404;11.034;2023-02-11T01:38:27;100045.78;;;-2.51;74.75
75627;BME280;67372;49.404;11.034;2023-02-11T01:41:02;100039.38;;;-2.45;73.93
75627;BME280;67372;49.404;11.034;2023-02-11T01:43:32;100038.34;;;-2.42;74.13
75627;BME280;67372;49.404;11.034;2023-02-11T01:46:20;100040.88;;;-2.41;73.58
75627;BME280;67372;49.404;11.034;2023-02-11T01:48:55;100044.31;;;-2.40;74.02
75627;BME280;67372;49.404;11.034;2023-02-11T01:51:25;100036.28;;;-2.37;74.09
75627;BME280;67372;49.404;11.034;2023-02-11T01:53:54;100034.53;;;-2.37;74.56
75627;BME280;67372;49.404;11.034;2023-02-11T01:56:24;100028.63;;;-2.40;74.03
75627;BME280;67372;49.404;11.034;2023-02-11T01:58:54;100019.88;;;-2.39;74.28
75627;BME280;67372;49.404;11.034;2023-02-11T02:01:25;100020.72;;;-2.39;73.98
75627;BME280;67372;49.404;11.034;2023-02-11T02:03:56;100025.84;;;-2.37;74.01
75627;BME280;67372;49.404;11.034;2023-02-11T02:06:29;100024.06;;;-2.37;74.20
75627;BME280;67372;49.404;11.034;2023-02-11T02:09:08;100023.81;;;-2.32;74.33
75627;BME280;67372;49.404;11.034;2023-02-11T02:11:36;100013.00;;;-2.26;73.95
75627;BME280;67372;49.404;11.034;2023-02-11T02:14:03;100009.19;;;-2.21;73.93
75627;BME280;67372;49.404;11.034;2023-02-11T02:16:33;100008.81;;;-2.14;73.84
75627;BME280;67372;49.404;11.034;2023-02-11T02:21:57;100011.66;;;-2.03;74.19
75627;BME280;67372;49.404;11.034;2023-02-11T02:30:39;99998.50;;;-1.88;73.80
75627;BME280;67372;49.404;11.034;2023-02-11T02:33:18;100003.63;;;-1.86;73.03
75627;BME280;67372;49.404;11.034;2023-02-11T02:36:11;99985.59;;;-1.91;73.23
75627;BME280;67372;49.404;11.034;2023-02-11T02:38:52;99982.13;;;-1.91;74.95
75627;BME280;67372;49.404;11.034;2023-02-11T02:41:26;99974.38;;;-1.93;73.31
75627;BME280;67372;49.404;11.034;2023-02-11T02:43:53;99967.28;;;-1.91;73.47
75627;BME280;67372;49.404;11.034;2023-02-11T02:46:28;99969.25;;;-1.94;73.60
75627;BME280;67372;49.404;11.034;2023-02-11T02:48:56;99969.44;;;-1.97;73.71
75627;BME280;67372;49.404;11.034;2023-02-11T02:54:46;99973.44;;;-1.92;73.66
75627;BME280;67372;49.404;11.034;2023-02-11T02:57:29;99980.34;;;-1.91;73.68
75627;BME280;67372;49.404;11.034;2023-02-11T03:00:22;99984.84;;;-1.93;73.32
75627;BME280;67372;49.404;11.034;2023-02-11T03:03:07;99992.69;;;-1.93;73.51
75627;BME280;67372;49.404;11.034;2023-02-11T03:05:51;99981.19;;;-1.90;74.45
75627;BME280;67372;49.404;11.034;2023-02-11T03:08:26;99984.66;;;-1.90;73.98
75627;BME280;67372;49.404;11.034;2023-02-11T03:10:56;99977.41;;;-1.84;73.38
75627;BME280;67372;49.404;11.034;2023-02-11T03:13:28;99975.34;;;-1.79;73.29
75627;BME280;67372;49.404;11.034;2023-02-11T03:15:57;99973.25;;;-1.74;73.65
75627;BME280;67372;49.404;11.034;2023-02-11T03:19:52;99971.78;;;-1.78;73.54
75627;BME280;67372;49.404;11.034;2023-02-11T03:22:25;99972.22;;;-1.72;74.10
75627;BME280;67372;49.404;11.034;2023-02-11T03:24:54;99974.41;;;-1.64;73.95
75627;BME280;67372;49.404;11.034;2023-02-11T03:27:41;99975.69;;;-1.57;73.85
75627;BME280;67372;49.404;11.034;2023-02-11T03:30:33;99974.34;;;-1.50;74.05
75627;BME280;67372;49.404;11.034;2023-02-11T03:33:17;99982.38;;;-1.39;73.94
75627;BME280;67372;49.404;11.034;2023-02-11T03:35:53;99990.59;;;-1.31;74.08
75627;BME280;67372;49.404;11.034;2023-02-11T03:38:28;99983.06;;;-1.23;73.52
75627;BME280;67372;49.404;11.034;2023-02-11T03:40:57;99987.75;;;-1.13;73.40
75627;BME280;67372;49.404;11.034;2023-02-11T03:43:29;99978.56;;;-1.06;73.90
75627;BME280;67372;49.404;11.034;2023-02-11T03:45:57;99977.41;;;-1.02;73.10
75627;BME280;67372;49.404;11.034;2023-02-11T03:48:38;99981.41;;;-0.97;73.53
75627;BME280;67372;49.404;11.034;2023-02-11T03:51:06;99974.00;;;-0.90;72.94
75627;BME280;67372;49.404;11.034;2023-02-11T03:53:35;99964.59;;;-0.80;73.49
75627;BME280;67372;49.404;11.034;2023-02-11T03:56:06;99961.69;;;-0.75;73.46
75627;BME280;67372;49.404;11.034;2023-02-11T03:58:34;99959.63;;;-0.70;73.08
75627;BME280;67372;49.404;11.034;2023-02-11T04:01:00;99961.09;;;-0.66;72.88
75627;BME280;67372;49.404;11.034;2023-02-11T04:03:27;99964.22;;;-0.61;72.29
75627;BME280;67372;49.404;11.034;2023-02-11T04:05:53;99956.91;;;-0.56;72.31
75627;BME280;67372;49.404;11.034;2023-02-11T04:08:20;99972.31;;;-0.51;72.90
75627;BME280;67372;49.404;11.034;2023-02-11T04:10:46;99969.41;;;-0.47;72.67
75627;BME280;67372;49.404;11.034;2023-02-11T04:13:12;99961.22;;;-0.42;72.50
75627;BME280;67372;49.404;11.034;2023-02-11T04:15:39;99946.13;;;-0.39;72.48
75627;BME280;67372;49.404;11.034;2023-02-11T04:18:05;99933.13;;;-0.40;72.72
75627;BME280;67372;49.404;11.034;2023-02-11T04:20:31;99937.66;;;-0.42;72.24
75627;BME280;67372;49.404;11.034;2023-02-11T04:22:58;99946.44;;;-0.43;72.10
75627;BME280;67372;49.404;11.034;2023-02-11T04:25:24;99949.91;;;-0.43;72.39
75627;BME280;67372;49.404;11.034;2023-02-11T04:27:50;99942.78;;;-0.41;71.88
75627;BME280;67372;49.404;11.034;2023-02-11T04:30:17;99945.63;;;-0.44;72.00
75627;BME280;67372;49.404;11.034;2023-02-11T04:32:43;99943.38;;;-0.50;72.51
75627;BME280;67372;49.404;11.034;2023-02-11T04:35:09;99927.75;;;-0.64;73.05
75627;BME280;67372;49.404;11.034;2023-02-11T04:37:36;99930.78;;;-0.70;73.09
75627;BME280;67372;49.404;11.034;2023-02-11T04:40:03;99908.91;;;-0.69;73.71
75627;BME280;67372;49.404;11.034;2023-02-11T04:42:29;99897.03;;;-0.75;74.37
75627;BME280;67372;49.404;11.034;2023-02-11T04:44:56;99883.91;;;-0.75;74.69
75627;BME280;67372;49.404;11.034;2023-02-11T04:47:22;99902.81;;;-0.70;73.87
75627;BME280;67372;49.404;11.034;2023-02-11T04:49:49;99906.59;;;-0.61;74.10
75627;BME280;67372;49.404;11.034;2023-02-11T04:52:15;99906.16;;;-0.55;73.81
75627;BME280;67372;49.404;11.034;2023-02-11T04:54:41;99898.53;;;-0.45;73.50
75627;BME280;67372;49.404;11.034;2023-02-11T04:57:07;99895.38;;;-0.38;73.69
75627;BME280;67372;49.404;11.034;2023-02-11T04:59:34;99892.22;;;-0.30;73.33
75627;BME280;67372;49.404;11.034;2023-02-11T05:02:00;99894.41;;;-0.24;73.17
75627;BME280;67372;49.404;11.034;2023-02-11T05:04:27;99886.47;;;-0.22;73.12
75627;BME280;67372;49.404;11.034;2023-02-11T05:06:53;99894.13;;;-0.19;72.90
75627;BME280;67372;49.404;11.034;2023-02-11T05:09:22;99885.94;;;-0.15;73.73
75627;BME280;67372;49.404;11.034;2023-02-11T05:11:48;99906.59;;;-0.10;73.06
75627;BME280;67372;49.404;11.034;2023-02-11T05:14:15;99918.31;;;-0.03;73.54
75627;BME280;67372;49.404;11.034;2023-02-11T05:16:41;99910.28;;;0.00;72.97
75627;BME280;67372;49.404;11.034;2023-02-11T05:19:07;99907.22;;;0.06;72.77
75627;BME280;67372;49.404;11.034;2023-02-11T05:21:34;99912.97;;;0.11;72.28
75627;BME280;67372;49.404;11.034;2023-02-11T05:24:00;99917.88;;;0.16;73.06
75627;BME280;67372;49.404;11.034;2023-02-11T05:26:26;99916.41;;;0.24;72.58
75627;BME280;67372;49.404;11.034;2023-02-11T05:28:53;99910.63;;;0.32;72.88
75627;BME280;67372;49.404;11.034;2023-02-11T05:31:19;99899.78;;;0.37;72.87
75627;BME280;67372;49.404;11.034;2023-02-11T05:33:45;99889.19;;;0.38;72.68
75627;BME280;67372;49.404;11.034;2023-02-11T05:36:12;99882.97;;;0.39;72.42
75627;BME280;67372;49.404;11.034;2023-02-11T05:38:38;99884.88;;;0.37;71.99
75627;BME280;67372;49.404;11.034;2023-02-11T05:41:05;99895.59;;;0.34;72.43
75627;BME280;67372;49.404;11.034;2023-02-11T05:43:32;99898.56;;;0.29;72.47
75627;BME280;67372;49.404;11.034;2023-02-11T05:45:58;99883.53;;;0.32;72.20
75627;BME280;67372;49.404;11.034;2023-02-11T05:48:24;99882.59;;;0.33;72.32
75627;BME280;67372;49.404;11.034;2023-02-11T05:50:51;99874.50;;;0.36;72.83
75627;BME280;67372;49.404;11.034;2023-02-11T05:53:17;99870.81;;;0.38;72.32
75627;BME280;67372;49.404;11.034;2023-02-11T05:55:44;99860.19;;;0.40;72.94
75627;BME280;67372;49.404;11.034;2023-02-11T05:58:10;99870.47;;;0.43;72.66
75627;BME280;67372;49.404;11.034;2023-02-11T06:00:37;99873.69;;;0.46;72.67
75627;BME280;67372;49.404;11.034;2023-02-11T06:03:03;99889.03;;;0.52;73.02
75627;BME280;67372;49.404;11.034;2023-02-11T06:05:31;99890.25;;;0.59;72.99
75627;BME280;67372;49.404;11.034;2023-02-11T06:07:57;99889.69;;;0.67;72.62
75627;BME280;67372;49.404;11.034;2023-02-11T06:10:24;99887.47;;;0.74;73.23
75627;BME280;67372;49.404;11.034;2023-02-11T06:12:50;99887.84;;;0.80;72.34
75627;BME280;67372;49.404;11.034;2023-02-11T06:15:17;99898.03;;;0.85;72.47
75627;BME280;67372;49.404;11.034;2023-02-11T06:17:43;99895.50;;;0.83;72.50
75627;BME280;67372;49.404;11.034;2023-02-11T06:20:10;99884.78;;;0.86;72.34
75627;BME280;67372;49.404;11.034;2023-02-11T06:22:37;99882.03;;;0.88;72.00
75627;BME280;67372;49.404;11.034;2023-02-11T06:25:03;99866.72;;;0.82;72.89
75627;BME280;67372;49.404;11.034;2023-02-11T06:27:30;99867.41;;;0.73;73.17
75627;BME280;67372;49.404;11.034;2023-02-11T06:29:56;99865.00;;;0.70;72.70
75627;BME280;67372;49.404;11.034;2023-02-11T06:32:22;99861.53;;;0.69;73.24
75627;BME280;67372;49.404;11.034;2023-02-11T06:35:09;99884.22;;;0.70;72.93
75627;BME280;67372;49.404;11.034;2023-02-11T06:37:38;99865.00;;;0.70;72.36
75627;BME280;67372;49.404;11.034;2023-02-11T06:40:04;99866.78;;;0.69;72.93
75627;BME280;67372;49.404;11.034;2023-02-11T06:42:31;99868.56;;;0.69;72.49
75627;BME280;67372;49.404;11.034;2023-02-11T06:44:57;99871.19;;;0.69;72.65
75627;BME280;67372;49.404;11.034;2023-02-11T06:47:23;99872.25;;;0.66;72.68
75627;BME280;67372;49.404;11.034;2023-02-11T06:49:50;99869.25;;;0.59;73.23
75627;BME280;67372;49.404;11.034;2023-02-11T06:52:16;99876.41;;;0.57;73.04
75627;BME280;67372;49.404;11.034;2023-02-11T06:54:42;99863.16;;;0.59;73.10
75627;BME280;67372;49.404;11.034;2023-02-11T06:57:09;99873.31;;;0.64;73.03
75627;BME280;67372;49.404;11.034;2023-02-11T06:59:35;99875.50;;;0.70;73.01
75627;BME280;67372;49.404;11.034;2023-02-11T07:02:01;99875.31;;;0.73;73.04
75627;BME280;67372;49.404;11.034;2023-02-11T07:04:28;99899.78;;;0.73;73.20
75627;BME280;67372;49.404;11.034;2023-02-11T07:06:54;99894.41;;;0.75;73.35
75627;BME280;67372;49.404;11.034;2023-02-11T07:09:21;99891.56;;;0.78;73.35
75627;BME280;67372;49.404;11.034;2023-02-11T07:11:47;99891.09;;;0.84;72.85
75627;BME280;67372;49.404;11.034;2023-02-11T07:14:13;99905.66;;;0.88;72.66
75627;BME280;67372;49.404;11.034;2023-02-11T07:16:39;99895.88;;;0.90;73.17
75627;BME280;67372;49.404;11.034;2023-02-11T07:19:06;99896.28;;;0.97;73.01
75627;BME280;67372;49.404;11.034;2023-02-11T07:21:32;99899.31;;;1.03;72.55
75627;BME280;67372;49.404;11.034;2023-02-11T07:23:59;99904.94;;;1.10;72.50
75627;BME280;67372;49.404;11.034;2023-02-11T07:26:25;99907.81;;;1.18;72.23
75627;BME280;67372;49.404;11.034;2023-02-11T07:28:52;99901.88;;;1.27;72.86
75627;BME280;67372;49.404;11.034;2023-02-11T07:31:26;99898.19;;;1.41;71.98
75627;BME280;67372;49.404;11.034;2023-02-11T07:33:55;99896.34;;;1.54;72.18
75627;BME280;67372;49.404;11.034;2023-02-11T07:36:22;99884.66;;;1.69;72.33
75627;BME280;67372;49.404;11.034;2023-02-11T07:38:49;99892.16;;;1.85;71.99
75627;BME280;67372;49.404;11.034;2023-02-11T07:41:18;99885.59;;;2.02;72.06
75627;BME280;67372;49.404;11.034;2023-02-11T07:43:45;99887.97;;;2.27;72.07
75627;BME280;67372;49.404;11.034;2023-02-11T07:48:42;99900.06;;;2.84;71.60
75627;BME280;67372;49.404;11.034;2023-02-11T07:53:39;99905.06;;;3.19;70.11
75627;BME280;67372;49.404;11.034;2023-02-11T07:56:07;99913.88;;;3.29;69.56
75627;BME280;67372;49.404;11.034;2023-02-11T07:58:34;99917.44;;;3.39;68.85
75627;BME280;67372;49.404;11.034;2023-02-11T08:01:06;99912.56;;;3.56;69.52
75627;BME280;67372;49.404;11.034;2023-02-11T08:03:33;99907.91;;;3.69;68.52
75627;BME280;67372;49.404;11.034;2023-02-11T08:06:08;99904.88;;;3.74;66.48
75627;BME280;67372;49.404;11.034;2023-02-11T08:08:35;99909.13;;;3.86;66.57
75627;BME280;67372;49.404;11.034;2023-02-11T08:11:09;99921.13;;;3.99;67.58
75627;BME280;67372;49.404;11.034;2023-02-11T08:13:36;99912.03;;;4.13;66.16
75627;BME280;67372;49.404;11.034;2023-02-11T08:16:03;99914.31;;;4.27;67.76
75627;BME280;67372;49.404;11.034;2023-02-11T08:18:31;99911.69;;;4.37;66.99
75627;BME280;67372;49.404;11.034;2023-02-11T08:21:05;99921.75;;;4.53;65.84
75627;BME280;67372;49.404;11.034;2023-02-11T08:23:35;99923.72;;;4.60;65.55
75627;BME280;67372;49.404;11.034;2023-02-11T08:26:03;99914.94;;;4.60;65.46
75627;BME280;67372;49.404;11.034;2023-02-11T08:28:29;99905.91;;;4.53;64.45
75627;BME280;67372;49.404;11.034;2023-02-11T08:30:55;99905.63;;;4.56;65.45
75627;BME280;67372;49.404;11.034;2023-02-11T08:33:22;99908.00;;;4.59;65.01
75627;BME280;67372;49.404;11.034;2023-02-11T08:35:48;99905.06;;;4.62;65.10
75627;BME280;67372;49.404;11.034;2023-02-11T08:38:14;99903.13;;;4.64;64.14
75627;BME280;67372;49.404;11.034;2023-02-11T08:40:41;99916.38;;;4.74;65.26
75627;BME280;67372;49.404;11.034;2023-02-11T08:43:07;99913.88;;;4.82;64.68
75627;BME280;67372;49.404;11.034;2023-02-11T08:45:33;99908.31;;;4.85;64.25
75627;BME280;67372;49.404;11.034;2023-02-11T08:48:00;99893.84;;;4.89;63.29
75627;BME280;67372;49.404;11.034;2023-02-11T08:50:26;99900.09;;;4.88;64.58
75627;BME280;67372;49.404;11.034;2023-02-11T08:52:53;99896.34;;;4.90;64.66
75627;BME280;67372;49.404;11.034;2023-02-11T08:55:19;99894.56;;;5.01;64.76
75627;BME280;67372;49.404;11.034;2023-02-11T08:57:46;99895.78;;;5.16;64.70
75627;BME280;67372;49.404;11.034;2023-02-11T09:00:13;99905.41;;;5.27;64.56
75627;BME280;67372;49.404;11.034;2023-02-11T09:02:40;99910.69;;;5.36;63.78
75627;BME280;67372;49.404;11.034;2023-02-11T09:05:06;99912.75;;;5.42;64.39
75627;BME280;67372;49.404;11.034;2023-02-11T09:07:33;99913.88;;;5.49;64.19
75627;BME280;67372;49.404;11.034;2023-02-11T09:09:59;99908.97;;;5.64;64.57
75627;BME280;67372;49.404;11.034;2023-02-11T09:12:25;99908.69;;;5.77;64.38
75627;BME280;67372;49.404;11.034;2023-02-11T09:14:52;99906.97;;;5.85;61.92
75627;BME280;67372;49.404;11.034;2023-02-11T09:17:18;99905.31;;;5.94;62.37
75627;BME280;67372;49.404;11.034;2023-02-11T09:19:44;99901.09;;;6.01;62.40
75627;BME280;67372;49.404;11.034;2023-02-11T09:22:11;99890.31;;;6.12;63.99
75627;BME280;67372;49.404;11.034;2023-02-11T09:24:37;99879.41;;;6.25;63.70
75627;BME280;67372;49.404;11.034;2023-02-11T09:27:04;99882.50;;;6.38;61.83
75627;BME280;67372;49.404;11.034;2023-02-11T09:29:31;99886.50;;;6.52;61.50
75627;BME280;67372;49.404;11.034;2023-02-11T09:31:57;99887.47;;;6.51;61.42
75627;BME280;67372;49.404;11.034;2023-02-11T09:34:23;99892.59;;;6.35;61.53
75627;BME280;67372;49.404;11.034;2023-02-11T09:36:50;99889.31;;;6.23;62.08
75627;BME280;67372;49.404;11.034;2023-02-11T09:39:17;99893.22;;;6.19;62.29
75627;BME280;67372;49.404;11.034;2023-02-11T09:42:07;99900.53;;;6.07;61.10
75627;BME280;67372;49.404;11.034;2023-02-11T09:44:36;99910.19;;;5.99;61.71
75627;BME280;67372;49.404;11.034;2023-02-11T09:47:05;99908.06;;;6.02;62.03
75627;BME280;67372;49.404;11.034;2023-02-11T09:49:38;99901.50;;;6.06;62.49
75627;BME280;67372;49.404;11.034;2023-02-11T09:55:20;99899.59;;;6.26;60.59
75627;BME280;67372;49.404;11.034;2023-02-11T09:57:47;99899.31;;;6.29;61.08
75627;BME280;67372;49.404;11.034;2023-02-11T10:00:28;99892.03;;;6.41;61.37
75627;BME280;67372;49.404;11.034;2023-02-11T10:03:18;99894.97;;;6.56;61.29
75627;BME280;67372;49.404;11.034;2023-02-11T10:06:01;99895.72;;;6.48;60.55
75627;BME280;67372;49.404;11.034;2023-02-11T10:08:45;99892.09;;;6.49;60.72
75627;BME280;67372;49.404;11.034;2023-02-11T10:11:29;99903.31;;;6.61;60.16
75627;BME280;67372;49.404;11.034;2023-02-11T10:14:15;99910.84;;;6.38;60.91
75627;BME280;67372;49.404;11.034;2023-02-11T10:16:56;99919.06;;;6.44;61.09
75627;BME280;67372;49.404;11.034;2023-02-11T10:19:53;99926.50;;;6.59;60.70
75627;BME280;67372;49.404;11.034;2023-02-11T10:22:30;99915.41;;;6.73;61.71
75627;BME280;67372;49.404;11.034;2023-02-11T10:25:11;99921.03;;;6.88;61.06
75627;BME280;67372;49.404;11.034;2023-02-11T10:27:41;99920.13;;;6.97;61.30
75627;BME280;67372;49.404;11.034;2023-02-11T10:30:18;99915.88;;;7.04;60.56
75627;BME280;67372;49.404;11.034;2023-02-11T10:32:55;99917.03;;;7.19;61.07
75627;BME280;67372;49.404;11.034;2023-02-11T10:35:23;99915.41;;;7.44;61.66
75627;BME280;67372;49.404;11.034;2023-02-11T10:37:49;99916.13;;;7.72;60.07
75627;BME280;67372;49.404;11.034;2023-02-11T10:40:19;99908.44;;;7.87;57.96
75627;BME280;67372;49.404;11.034;2023-02-11T10:42:51;99906.91;;;8.10;58.04
75627;BME280;67372;49.404;11.034;2023-02-11T10:45:29;99900.66;;;8.27;57.45
75627;BME280;67372;49.404;11.034;2023-02-11T10:47:57;99892.13;;;8.16;56.56
75627;BME280;67372;49.404;11.034;2023-02-11T10:50:26;99899.47;;;7.88;57.11
75627;BME280;67372;49.404;11.034;2023-02-11T10:53:10;99892.09;;;7.56;58.52
75627;BME280;67372;49.404;11.034;2023-02-11T10:55:37;99898.22;;;7.56;59.27
75627;BME280;67372;49.404;11.034;2023-02-11T10:58:03;99900.13;;;7.64;58.90
75627;BME280;67372;49.404;11.034;2023-02-11T11:00:39;99892.41;;;7.79;59.05
75627;BME280;67372;49.404;11.034;2023-02-11T11:03:17;99900.63;;;7.85;58.86
75627;BME280;67372;49.404;11.034;2023-02-11T11:05:47;99901.13;;;7.89;58.51
75627;BME280;67372;49.404;11.034;2023-02-11T11:08:15;99895.97;;;7.87;58.77
75627;BME280;67372;49.404;11.034;2023-02-11T11:10:43;99894.34;;;7.94;58.26
75627;BME280;67372;49.404;11.034;2023-02-11T11:16:31;99895.66;;;8.24;58.17
75627;BME280;67372;49.404;11.034;2023-02-11T11:24:33;99887.06;;;8.30;56.80
75627;BME280;67372;49.404;11.034;2023-02-11T11:27:05;99888.16;;;8.20;57.72
75627;BME280;67372;49.404;11.034;2023-02-11T11:29:42;99888.28;;;8.10;58.58
75627;BME280;67372;49.404;11.034;2023-02-11T11:32:15;99890.97;;;8.18;58.25
75627;BME280;67372;49.404;11.034;2023-02-11T11:34:54;99886.00;;;8.23;57.84
75627;BME280;67372;49.404;11.034;2023-02-11T11:37:25;99887.28;;;8.37;57.74
75627;BME280;67372;49.404;11.034;2023-02-11T11:40:03;99881.75;;;8.30;57.82
75627;BME280;67372;49.404;11.034;2023-02-11T11:42:35;99875.59;;;8.30;57.83
75627;BME280;67372;49.404;11.034;2023-02-11T11:45:22;99880.03;;;8.21;58.13
75627;BME280;67372;49.404;11.034;2023-02-11T11:47:53;99887.16;;;8.21;57.97
75627;BME280;67372;49.404;11.034;2023-02-11T11:53:27;99890.03;;;7.93;59.98
75627;BME280;67372;49.404;11.034;2023-02-11T11:56:10;99881.38;;;7.91;59.48
75627;BME280;67372;49.404;11.034;2023-02-11T11:58:38;99885.59;;;7.76;59.33
75627;BME280;67372;49.404;11.034;2023-02-11T12:01:43;99880.59;;;7.73;59.70
75627;BME280;67372;49.404;11.034;2023-02-11T12:23:52;99871.25;;;7.61;60.24
75627;BME280;67372;49.404;11.034;2023-02-11T12:26:33;99873.78;;;7.70;59.98
75627;BME280;67372;49.404;11.034;2023-02-11T12:29:26;99870.50;;;7.77;59.37
75627;BME280;67372;49.404;11.034;2023-02-11T12:34:38;99877.78;;;7.75;59.36
75627;BME280;67372;49.404;11.034;2023-02-11T12:37:25;99879.75;;;7.73;59.18
75627;BME280;67372;49.404;11.034;2023-02-11T12:40:02;99871.13;;;7.70;58.99
75627;BME280;67372;49.404;11.034;2023-02-11T12:42:39;99881.63;;;7.54;58.86
75627;BME280;67372;49.404;11.034;2023-02-11T12:55:28;99855.06;;;7.54;58.81
75627;BME280;67372;49.404;11.034;2023-02-11T12:57:57;99863.16;;;7.45;58.75
75627;BME280;67372;49.404;11.034;2023-02-11T13:00:50;99849.56;;;7.48;58.68
75627;BME280;67372;49.404;11.034;2023-02-11T13:06:19;99852.41;;;7.54;58.50
75627;BME280;67372;49.404;11.034;2023-02-11T13:08:51;99857.31;;;7.41;58.27
75627;BME280;67372;49.404;11.034;2023-02-11T13:11:24;99853.84;;;7.41;58.23
75627;BME280;67372;49.404;11.034;2023-02-11T13:13:59;99840.41;;;7.42;58.69
75627;BME280;67372;49.404;11.034;2023-02-11T13:19:13;99836.47;;;7.54;57.32
75627;BME280;67372;49.404;11.034;2023-02-11T13:24:57;99841.47;;;7.31;57.75
75627;BME280;67372;49.404;11.034;2023-02-11T13:28:10;99839.38;;;7.35;58.00
75627;BME280;67372;49.404;11.034;2023-02-11T13:30:39;99836.09;;;7.41;58.33
75627;BME280;67372;49.404;11.034;2023-02-11T13:33:18;99828.94;;;7.42;58.49
75627;BME280;67372;49.404;11.034;2023-02-11T13:38:32;99832.28;;;7.44;57.84
75627;BME280;67372;49.404;11.034;2023-02-11T13:41:23;99835.44;;;7.47;58.11
75627;BME280;67372;49.404;11.034;2023-02-11T13:46:53;99844.34;;;7.38;57.68
75627;BME280;67372;49.404;11.034;2023-02-11T13:49:23;99847.41;;;7.25;58.19
75627;BME280;67372;49.404;11.034;2023-02-11T13:51:51;99849.84;;;7.19;58.31
75627;BME280;67372;49.404;11.034;2023-02-11T13:54:24;99854.13;;;7.12;58.81
75627;BME280;67372;49.404;11.034;2023-02-11T14:05:15;99876.44;;;7.09;59.58
75627;BME280;67372;49.404;11.034;2023-02-11T14:13:23;99863.66;;;7.04;60.68
75627;BME280;67372;49.404;11.034;2023-02-11T14:16:09;99855.31;;;6.99;61.00
75627;BME280;67372;49.404;11.034;2023-02-11T14:26:49;99852.44;;;6.93;63.40
75627;BME280;67372;49.404;11.034;2023-02-11T14:34:53;99856.06;;;6.74;64.54
75627;BME280;67372;49.404;11.034;2023-02-11T14:40:22;99846.44;;;6.73;64.74
75627;BME280;67372;49.404;11.034;2023-02-11T14:42:53;99851.16;;;6.79;64.47
75627;BME280;67372;49.404;11.034;2023-02-11T14:45:25;99835.03;;;6.90;64.01
75627;BME280;67372;49.404;11.034;2023-02-11T14:48:14;99836.22;;;6.96;63.73
75627;BME280;67372;49.404;11.034;2023-02-11T14:50:50;99834.88;;;6.92;64.81
75627;BME280;67372;49.404;11.034;2023-02-11T14:53:23;99842.66;;;6.93;65.08
75627;BME280;67372;49.404;11.034;2023-02-11T14:55:52;99845.47;;;6.92;65.24
75627;BME280;67372;49.404;11.034;2023-02-11T14:58:21;99849.56;;;6.86;64.94
75627;BME280;67372;49.404;11.034;2023-02-11T15:05:57;99844.47;;;6.75;65.88
75627;BME280;67372;49.404;11.034;2023-02-11T15:08:25;99841.16;;;6.73;66.10